Time;durP1;ratioP1;P1;durP2;ratioP2;P2;SDS_P1;SDS_P2;PMS_P1;PMS_P2;Temp;Humidity;BMP_temperature;BMP_pressure;BME280_temperature;BME280_humidity;BME280_pressure;Samples;Min_cycle;Max_cycle;Signal;HPM_P1;HPM_P2
2023/11/14 00:02:01;;;;;;;17.10;11.13;;;;;;;5.45;62.41;99071.47;5090609;28;21086;-76
2023/11/14 00:04:29;;;;;;;18.37;11.60;;;;;;;5.50;62.30;99078.25;5092517;28;20192;-74
2023/11/14 00:07:01;;;;;;;17.37;11.07;;;;;;;5.50;61.66;99085.06;5093917;28;20219;-75
2023/11/14 00:09:31;;;;;;;16.43;9.90;;;;;;;5.50;62.40;99077.41;5093477;28;20208;-74
2023/11/14 00:11:59;;;;;;;15.80;9.47;;;;;;;5.55;61.93;99078.22;5086686;28;20220;-75
2023/11/14 00:14:27;;;;;;;17.33;10.93;;;;;;;5.57;61.35;99076.50;5087758;28;20204;-72
2023/11/14 00:16:55;;;;;;;13.87;9.63;;;;;;;5.61;60.83;99070.50;5091372;28;20655;-73
2023/11/14 00:19:25;;;;;;;13.93;9.37;;;;;;;5.64;60.88;99065.38;5088380;28;20252;-75
2023/11/14 00:21:53;;;;;;;12.30;8.77;;;;;;;5.65;61.06;99044.06;5090598;28;20253;-72
2023/11/14 00:24:21;;;;;;;14.10;9.03;;;;;;;5.66;60.86;99025.31;5088507;28;20208;-77
2023/11/14 00:26:51;;;;;;;21.03;9.73;;;;;;;5.63;60.89;98997.22;5093416;28;20223;-75
2023/11/14 00:29:19;;;;;;;17.17;9.50;;;;;;;5.59;60.73;98982.78;5088803;28;20655;-75
2023/11/14 00:31:47;;;;;;;14.57;9.40;;;;;;;5.52;60.04;98984.56;5086965;28;20208;-75
2023/11/14 00:34:16;;;;;;;20.20;10.20;;;;;;;5.48;61.13;98984.59;5087007;28;20207;-68
2023/11/14 00:36:45;;;;;;;16.63;10.03;;;;;;;5.49;61.03;98973.53;5088714;28;20208;-67
2023/11/14 00:39:16;;;;;;;14.60;10.50;;;;;;;5.47;62.48;98967.56;5089234;28;20208;-70
2023/11/14 00:41:46;;;;;;;16.87;10.60;;;;;;;5.41;63.47;98965.91;5085659;28;20640;-70
2023/11/14 00:44:15;;;;;;;19.97;11.70;;;;;;;5.38;64.48;98983.00;5093842;28;20200;-68
2023/11/14 00:46:43;;;;;;;16.13;11.37;;;;;;;5.38;64.75;98978.72;5088301;28;20317;-69
2023/11/14 00:49:12;;;;;;;19.50;11.13;;;;;;;5.35;65.72;98994.06;5090059;28;20770;-69
2023/11/14 00:51:39;;;;;;;16.47;11.60;;;;;;;5.34;66.17;99012.81;5089888;28;20777;-70
2023/11/14 00:54:08;;;;;;;20.47;11.73;;;;;;;5.36;66.83;99040.88;5090206;28;20200;-69
2023/11/14 00:56:36;;;;;;;19.07;12.17;;;;;;;5.36;67.69;99061.31;5086908;28;20210;-70
2023/11/14 00:59:05;;;;;;;18.03;11.07;;;;;;;5.36;67.94;99051.09;5088103;28;20209;-69
2023/11/14 01:01:34;;;;;;;17.20;10.60;;;;;;;5.36;68.26;99023.84;5087915;28;20201;-70
2023/11/14 01:04:03;;;;;;;16.47;10.10;;;;;;;5.29;68.92;98969.41;5086151;28;20651;-67
2023/11/14 01:06:31;;;;;;;17.50;11.90;;;;;;;5.12;71.02;98929.53;5077009;28;20224;-69
2023/11/14 01:09:00;;;;;;;21.00;12.63;;;;;;;4.93;72.00;98893.09;5094996;28;20667;-66
2023/11/14 01:11:28;;;;;;;16.63;11.03;;;;;;;4.69;74.47;98864.34;5097603;28;20196;-68
2023/11/14 01:13:57;;;;;;;16.83;11.07;;;;;;;4.51;75.50;98828.75;5090049;28;20578;-67
2023/11/14 01:16:25;;;;;;;18.03;10.63;;;;;;;4.41;76.79;98781.22;5095037;28;20231;-68
2023/11/14 01:18:55;;;;;;;15.70;10.53;;;;;;;4.39;76.79;98742.13;5085231;28;20715;-69
2023/11/14 01:21:23;;;;;;;15.73;10.07;;;;;;;4.38;78.11;98700.47;5088543;28;20948;-70
2023/11/14 01:23:51;;;;;;;16.77;11.20;;;;;;;4.32;78.70;98691.19;5092865;28;20247;-69
2023/11/14 01:26:19;;;;;;;17.87;11.33;;;;;;;4.30;77.62;98657.19;5096856;28;20240;-70
2023/11/14 01:28:47;;;;;;;20.47;11.80;;;;;;;4.23;79.07;98647.91;5094728;28;20234;-67
2023/11/14 01:31:22;;;;;;;17.23;12.10;;;;;;;4.16;80.41;98648.84;5089688;28;20209;-67
2023/11/14 01:33:50;;;;;;;17.50;11.23;;;;;;;4.16;79.55;98661.59;5087156;28;20200;-67
2023/11/14 01:36:19;;;;;;;17.93;11.70;;;;;;;4.16;79.01;98643.75;5089761;28;20215;-68
2023/11/14 01:38:48;;;;;;;21.07;12.33;;;;;;;4.11;79.58;98653.09;5095142;28;20567;-69
2023/11/14 01:41:16;;;;;;;18.63;11.83;;;;;;;4.13;78.97;98668.41;5089434;28;20235;-68
2023/11/14 01:43:44;;;;;;;21.33;12.27;;;;;;;4.12;80.71;98708.31;5077698;28;20204;-69
2023/11/14 01:46:16;;;;;;;15.73;11.17;;;;;;;4.18;80.30;98705.72;5088545;28;20244;-74
2023/11/14 01:48:46;;;;;;;17.90;12.13;;;;;;;4.23;80.84;98701.44;5094079;28;20228;-72
2023/11/14 01:51:15;;;;;;;18.57;12.20;;;;;;;4.24;80.16;98702.31;5090014;28;20983;-73
2023/11/14 01:53:44;;;;;;;16.50;11.53;;;;;;;4.27;80.46;98705.69;5098808;28;20208;-73
2023/11/14 01:56:13;;;;;;;17.73;11.83;;;;;;;4.25;80.44;98698.88;5094412;28;20270;-75
2023/11/14 01:58:41;;;;;;;18.27;12.20;;;;;;;4.27;81.62;98695.47;5097674;28;20197;-75
2023/11/14 02:01:12;;;;;;;19.20;12.53;;;;;;;4.22;82.10;98688.72;5094402;28;20706;-72
2023/11/14 02:03:40;;;;;;;17.20;11.90;;;;;;;4.25;81.79;98704.00;5087735;28;20197;-71
2023/11/14 02:06:09;;;;;;;16.30;12.07;;;;;;;4.28;81.32;98712.47;5090627;28;20548;-73
2023/11/14 02:08:38;;;;;;;19.70;12.43;;;;;;;4.36;82.22;98720.88;5093249;28;20253;-69
2023/11/14 02:11:08;;;;;;;17.40;12.03;;;;;;;4.44;81.80;98702.97;5094327;28;20220;-73
2023/11/14 02:13:36;;;;;;;18.90;11.97;;;;;;;4.51;82.22;98689.31;5091717;28;20214;-74
2023/11/14 02:16:05;;;;;;;17.97;11.50;;;;;;;4.55;83.60;98674.81;5104250;28;20235;-74
2023/11/14 02:18:33;;;;;;;19.03;12.50;;;;;;;4.63;83.73;98664.53;5093349;28;20264;-73
2023/11/14 02:21:01;;;;;;;18.47;11.73;;;;;;;4.65;82.60;98667.94;5096910;28;20279;-72
2023/11/14 02:23:36;;;;;;;18.40;11.83;;;;;;;4.69;83.69;98667.88;5087088;28;20205;-73
2023/11/14 02:26:07;;;;;;;17.20;11.90;;;;;;;4.73;84.84;98671.25;5090288;28;20210;-73
2023/11/14 02:28:35;;;;;;;16.60;11.87;;;;;;;4.77;84.56;98663.53;5094449;28;20216;-75
2023/11/14 02:31:04;;;;;;;16.37;11.73;;;;;;;4.76;84.31;98658.47;5090784;28;20219;-72
2023/11/14 02:33:33;;;;;;;16.93;11.30;;;;;;;4.75;84.45;98651.66;5091366;28;20200;-72
2023/11/14 02:36:01;;;;;;;16.73;11.80;;;;;;;4.82;83.71;98666.91;5090365;28;20611;-73
2023/11/14 02:38:31;;;;;;;17.63;11.60;;;;;;;4.85;83.91;98656.66;5089662;28;20204;-73
2023/11/14 02:40:59;;;;;;;21.17;12.30;;;;;;;4.90;83.96;98658.28;5090960;28;20258;-72
2023/11/14 02:43:28;;;;;;;19.47;12.40;;;;;;;4.92;85.31;98648.94;5088363;28;20201;-75
2023/11/14 02:45:56;;;;;;;18.97;12.17;;;;;;;4.91;84.67;98655.75;5091770;28;20288;-76
2023/11/14 02:48:25;;;;;;;15.93;11.70;;;;;;;4.95;84.98;98646.34;5087706;28;20212;-75
2023/11/14 02:50:54;;;;;;;17.47;11.50;;;;;;;4.99;85.27;98650.56;5087645;28;20224;-76
2023/11/14 02:53:23;;;;;;;15.13;11.00;;;;;;;5.01;85.49;98646.28;5092120;28;20239;-75
2023/11/14 02:55:53;;;;;;;15.13;11.23;;;;;;;5.03;85.66;98640.28;5089543;28;20286;-71
2023/11/14 02:58:21;;;;;;;17.80;11.07;;;;;;;5.06;85.32;98641.97;5086655;28;20216;-71
2023/11/14 03:00:51;;;;;;;17.07;11.70;;;;;;;5.12;85.80;98643.59;5088157;28;20548;-70
2023/11/14 03:03:19;;;;;;;15.47;11.03;;;;;;;5.18;84.64;98640.97;5090171;28;20200;-69
2023/11/14 03:05:47;;;;;;;15.40;10.93;;;;;;;5.17;84.86;98640.13;5091442;28;20208;-70
2023/11/14 03:08:15;;;;;;;15.70;11.10;;;;;;;5.13;84.73;98615.50;5089670;28;20640;-74
2023/11/14 03:10:44;;;;;;;13.83;10.30;;;;;;;5.17;85.21;98619.69;5089184;28;21023;-69
2023/11/14 03:13:12;;;;;;;15.20;11.30;;;;;;;5.23;85.67;98624.72;5087440;28;20232;-70
2023/11/14 03:15:41;;;;;;;14.07;10.33;;;;;;;5.29;85.35;98631.44;5088274;28;20275;-71
2023/11/14 03:18:11;;;;;;;15.73;11.13;;;;;;;5.26;85.70;98636.59;5092034;28;20641;-69
2023/11/14 03:20:41;;;;;;;17.97;12.10;;;;;;;5.21;85.52;98629.00;5100476;28;20283;-70
2023/11/14 03:23:10;;;;;;;15.50;11.07;;;;;;;5.20;84.89;98629.88;5085892;28;20285;-70
2023/11/14 03:25:38;;;;;;;14.93;10.77;;;;;;;5.18;85.44;98623.09;5092091;28;20204;-71
2023/11/14 03:28:06;;;;;;;15.07;11.60;;;;;;;5.15;85.26;98625.69;5091059;28;20315;-69
2023/11/14 03:30:34;;;;;;;17.30;12.40;;;;;;;5.11;86.43;98617.22;5089353;28;20584;-69
2023/11/14 03:33:02;;;;;;;15.60;11.47;;;;;;;5.14;87.27;98626.53;5096247;28;20242;-69
2023/11/14 03:35:32;;;;;;;17.90;11.93;;;;;;;5.13;86.88;98609.56;5087132;28;20204;-70
2023/11/14 03:38:01;;;;;;;18.33;11.17;;;;;;;5.13;86.50;98612.09;5092244;28;20208;-70
2023/11/14 03:40:29;;;;;;;14.00;11.00;;;;;;;5.10;87.44;98618.09;5093290;28;20682;-69
2023/11/14 03:42:59;;;;;;;17.73;11.53;;;;;;;5.15;87.96;98625.69;5088855;28;20541;-70
2023/11/14 03:45:27;;;;;;;16.60;12.00;;;;;;;5.11;87.98;98614.66;5089181;28;20519;-69
2023/11/14 03:47:55;;;;;;;17.23;11.33;;;;;;;5.11;87.83;98622.31;5088744;28;20603;-70
2023/11/14 03:50:23;;;;;;;16.53;11.67;;;;;;;5.07;87.58;98611.28;5090699;28;20228;-68
2023/11/14 03:52:53;;;;;;;15.77;11.73;;;;;;;5.10;88.24;98607.88;5094009;28;20209;-70
2023/11/14 03:55:21;;;;;;;16.97;12.13;;;;;;;5.10;87.87;98602.75;5092132;28;20312;-71
2023/11/14 03:57:49;;;;;;;16.40;12.63;;;;;;;5.10;88.70;98602.75;5092486;28;20628;-70
2023/11/14 04:00:17;;;;;;;19.40;12.67;;;;;;;5.12;87.91;98598.50;5099203;28;20235;-70
2023/11/14 04:02:45;;;;;;;16.07;12.67;;;;;;;5.15;89.06;98590.78;5091640;28;20200;-70
2023/11/14 04:05:13;;;;;;;16.30;11.83;;;;;;;5.13;88.67;98584.84;5093022;28;20207;-71
2023/11/14 04:07:44;;;;;;;16.53;12.50;;;;;;;5.16;89.51;98595.03;5090975;28;20292;-69
2023/11/14 04:10:15;;;;;;;19.83;14.07;;;;;;;5.20;89.34;98586.47;5087654;28;20204;-70
2023/11/14 04:12:43;;;;;;;16.60;12.10;;;;;;;5.26;89.10;98583.81;5101526;28;20231;-70
2023/11/14 04:15:11;;;;;;;18.07;12.80;;;;;;;5.29;89.87;98585.50;5096287;28;20204;-72
2023/11/14 04:17:40;;;;;;;19.00;11.77;;;;;;;5.31;89.87;98584.59;5091387;28;20208;-72
2023/11/14 04:20:09;;;;;;;17.13;12.23;;;;;;;5.35;89.32;98587.97;5089536;28;20208;-70
2023/11/14 04:22:37;;;;;;;18.03;12.03;;;;;;;5.35;90.46;98590.53;5096098;28;20239;-69
2023/11/14 04:25:06;;;;;;;18.23;12.30;;;;;;;5.38;90.19;98597.31;5096748;28;20196;-69
2023/11/14 04:27:36;;;;;;;16.63;12.43;;;;;;;5.39;90.74;98581.09;5089522;28;20203;-73
2023/11/14 04:30:05;;;;;;;18.00;12.53;;;;;;;5.42;91.05;98586.19;5089179;28;20212;-71
2023/11/14 04:32:35;;;;;;;18.33;12.20;;;;;;;5.42;90.78;98573.41;5098239;28;20302;-71
2023/11/14 04:35:04;;;;;;;15.50;11.83;;;;;;;5.44;90.58;98571.66;5094900;28;20265;-70
2023/11/14 04:37:32;;;;;;;18.97;12.60;;;;;;;5.49;90.98;98580.13;5089869;28;20225;-71
2023/11/14 04:40:00;;;;;;;17.30;13.07;;;;;;;5.51;91.80;98583.47;5095463;28;20204;-72
2023/11/14 04:42:28;;;;;;;17.83;12.93;;;;;;;5.53;91.40;98586.88;5089362;28;20680;-70
2023/11/14 04:44:58;;;;;;;18.73;13.00;;;;;;;5.60;91.30;98585.91;5090410;28;20224;-71
2023/11/14 04:47:26;;;;;;;18.50;11.80;;;;;;;5.67;91.27;98592.63;5088132;28;20287;-72
2023/11/14 04:49:54;;;;;;;14.60;11.50;;;;;;;5.71;91.66;98596.81;5089799;28;20257;-70
2023/11/14 04:52:22;;;;;;;17.73;13.33;;;;;;;5.75;92.24;98589.94;5090228;28;20220;-71
2023/11/14 04:54:50;;;;;;;18.37;12.67;;;;;;;5.78;92.76;98605.19;5090580;28;20655;-71
2023/11/14 04:57:18;;;;;;;18.00;13.10;;;;;;;5.84;92.95;98594.88;5095352;28;20200;-72
2023/11/14 04:59:46;;;;;;;22.33;13.97;;;;;;;5.92;93.15;98610.97;5089679;28;20204;-69
2023/11/14 05:02:16;;;;;;;16.60;12.03;;;;;;;5.99;93.93;98593.84;5091340;28;20207;-68
2023/11/14 05:04:44;;;;;;;17.03;12.77;;;;;;;6.05;94.46;98592.03;5090659;28;20209;-67
2023/11/14 05:07:12;;;;;;;18.07;13.13;;;;;;;6.12;94.20;98605.56;5086929;28;20658;-69
2023/11/14 05:09:40;;;;;;;16.13;11.77;;;;;;;6.20;94.51;98603.72;5097851;28;20673;-69
2023/11/14 05:12:09;;;;;;;16.97;11.83;;;;;;;6.27;94.56;98605.28;5087734;28;20297;-68
2023/11/14 05:14:38;;;;;;;20.13;13.30;;;;;;;6.39;94.50;98608.50;5091468;28;20197;-70
2023/11/14 05:17:07;;;;;;;15.83;11.77;;;;;;;6.45;95.12;98610.97;5087910;28;20582;-71
2023/11/14 05:19:36;;;;;;;17.03;12.13;;;;;;;6.56;94.32;98611.59;5091017;28;20278;-71
2023/11/14 05:22:04;;;;;;;17.70;13.67;;;;;;;6.64;94.64;98614.88;5095007;28;20291;-70
2023/11/14 05:24:32;;;;;;;15.43;12.40;;;;;;;6.69;94.08;98620.72;5091802;28;20242;-70
2023/11/14 05:27:00;;;;;;;15.77;12.03;;;;;;;6.73;94.13;98630.03;5093884;28;20204;-69
2023/11/14 05:29:28;;;;;;;19.47;13.00;;;;;;;6.77;93.77;98631.69;5099537;28;20200;-69
2023/11/14 05:31:57;;;;;;;17.23;12.03;;;;;;;6.82;93.59;98633.31;5073852;28;20619;-69
2023/11/14 05:34:25;;;;;;;17.37;11.60;;;;;;;6.85;93.85;98635.78;5093838;28;20607;-70
2023/11/14 05:36:54;;;;;;;15.70;12.10;;;;;;;6.89;93.40;98645.13;5091873;28;20209;-71
2023/11/14 05:39:22;;;;;;;16.87;11.60;;;;;;;6.85;93.93;98628.09;5096834;28;20207;-70
2023/11/14 05:41:50;;;;;;;15.20;11.83;;;;;;;6.90;93.64;98639.13;5101886;28;20206;-69
2023/11/14 05:44:18;;;;;;;16.43;11.97;;;;;;;6.92;93.41;98645.91;5093979;28;20232;-70
2023/11/14 05:46:47;;;;;;;17.93;13.33;;;;;;;6.94;93.10;98643.31;5094390;28;20208;-70
2023/11/14 05:49:15;;;;;;;15.63;12.00;;;;;;;6.96;93.90;98656.94;5091344;28;20234;-70
2023/11/14 05:51:43;;;;;;;17.13;11.77;;;;;;;7.00;93.54;98668.81;5085309;28;20562;-72
2023/11/14 05:54:12;;;;;;;17.67;12.50;;;;;;;6.99;92.87;98669.66;5090634;28;20219;-71
2023/11/14 05:56:40;;;;;;;18.13;12.47;;;;;;;7.02;93.28;98667.03;5092888;28;20205;-69
2023/11/14 05:59:09;;;;;;;15.63;13.00;;;;;;;7.04;93.60;98673.00;5090838;28;20276;-70
2023/11/14 06:01:37;;;;;;;15.87;11.67;;;;;;;7.06;93.10;98672.94;5091568;28;20197;-71
2023/11/14 06:04:07;;;;;;;16.53;12.17;;;;;;;7.08;93.61;98677.19;5092493;28;20222;-68
2023/11/14 06:06:35;;;;;;;15.87;11.83;;;;;;;7.12;93.88;98683.94;5093476;28;20224;-70
2023/11/14 06:09:03;;;;;;;16.50;11.60;;;;;;;7.15;93.41;98686.44;5090293;28;20258;-69
2023/11/14 06:11:33;;;;;;;16.30;11.70;;;;;;;7.18;93.25;98683.81;5084330;28;20274;-71
2023/11/14 06:14:01;;;;;;;19.20;11.67;;;;;;;7.23;93.31;98676.88;5090240;28;20211;-70
2023/11/14 06:16:31;;;;;;;15.20;11.53;;;;;;;7.26;94.29;98686.22;5089732;28;20196;-69
2023/11/14 06:18:59;;;;;;;16.00;11.33;;;;;;;7.30;93.25;98684.44;5088580;28;20244;-69
2023/11/14 06:21:27;;;;;;;15.57;11.03;;;;;;;7.34;93.93;98693.75;5086615;28;20208;-69
2023/11/14 06:23:55;;;;;;;17.60;11.23;;;;;;;7.37;93.62;98694.53;5095309;28;20204;-70
2023/11/14 06:26:23;;;;;;;17.17;11.87;;;;;;;7.38;93.71;98690.25;5086986;28;20257;-72
2023/11/14 06:28:52;;;;;;;16.23;10.60;;;;;;;7.43;93.56;98696.13;5091339;28;20228;-74
2023/11/14 06:31:21;;;;;;;19.07;11.57;;;;;;;7.42;94.37;98692.72;5086398;28;20284;-74
2023/11/14 06:33:49;;;;;;;18.93;11.47;;;;;;;7.47;94.22;98700.28;5088568;28;20613;-72
2023/11/14 06:36:17;;;;;;;17.53;12.20;;;;;;;7.47;94.42;98700.28;5096763;28;20659;-73
2023/11/14 06:38:45;;;;;;;16.83;11.63;;;;;;;7.50;93.82;98703.63;5091291;28;20730;-71
2023/11/14 06:41:14;;;;;;;16.20;11.17;;;;;;;7.56;94.09;98710.38;5102645;28;20226;-72
2023/11/14 06:43:42;;;;;;;16.03;11.97;;;;;;;7.56;94.14;98709.53;5089428;28;20208;-70
2023/11/14 06:46:12;;;;;;;18.57;12.03;;;;;;;7.65;94.05;98710.16;5093446;28;20558;-72
2023/11/14 06:48:40;;;;;;;17.20;12.23;;;;;;;7.67;94.54;98716.13;5096208;28;20197;-72
2023/11/14 06:51:08;;;;;;;17.13;10.53;;;;;;;7.69;95.06;98710.94;5093171;28;20200;-70
2023/11/14 06:53:36;;;;;;;16.87;11.37;;;;;;;7.73;95.08;98721.13;5094467;28;20744;-72
2023/11/14 06:56:08;;;;;;;16.30;11.20;;;;;;;7.74;94.27;98709.97;5074096;28;20238;-72
2023/11/14 06:58:40;;;;;;;14.67;11.03;;;;;;;7.77;94.67;98723.59;5084475;28;20201;-72
2023/11/14 07:01:10;;;;;;;15.67;10.93;;;;;;;7.80;94.78;98718.41;5083899;28;20200;-73
2023/11/14 07:03:43;;;;;;;19.23;12.07;;;;;;;7.85;95.79;98732.00;5089035;28;20250;-75
2023/11/14 07:06:12;;;;;;;16.43;11.07;;;;;;;7.90;95.03;98735.28;5101368;28;20200;-76
2023/11/14 07:08:41;;;;;;;15.87;10.40;;;;;;;7.91;95.08;98724.97;5093095;28;20296;-74
2023/11/14 07:11:09;;;;;;;14.60;10.97;;;;;;;7.96;95.13;98730.03;5092799;28;20656;-78
2023/11/14 07:13:37;;;;;;;16.83;11.43;;;;;;;7.99;96.13;98729.97;5087422;28;20545;-75
2023/11/14 07:16:09;;;;;;;15.27;10.60;;;;;;;8.03;96.07;98736.72;5096268;28;20243;-75
2023/11/14 07:18:38;;;;;;;20.33;11.27;;;;;;;8.07;95.87;98727.22;5093101;28;20232;-73
2023/11/14 07:21:09;;;;;;;15.97;10.27;;;;;;;8.10;94.89;98729.69;5089342;28;20299;-71
2023/11/14 07:23:38;;;;;;;16.30;10.80;;;;;;;8.13;95.61;98738.16;5090313;28;20254;-72
2023/11/14 07:26:06;;;;;;;12.83;9.13;;;;;;;8.17;95.82;98734.69;5085838;28;20205;-71
2023/11/14 07:28:34;;;;;;;16.43;10.10;;;;;;;8.21;95.92;98738.88;5089829;28;20208;-73
2023/11/14 07:31:03;;;;;;;17.33;10.03;;;;;;;8.24;94.43;98737.94;5097159;28;20208;-73
2023/11/14 07:33:31;;;;;;;11.80;9.07;;;;;;;8.26;94.57;98737.91;5090844;28;20224;-73
2023/11/14 07:36:00;;;;;;;13.80;8.77;;;;;;;8.28;94.62;98726.72;5092485;28;20232;-67
2023/11/14 07:38:29;;;;;;;13.33;8.93;;;;;;;8.31;95.11;98738.63;5092912;28;20201;-73
2023/11/14 07:40:57;;;;;;;14.67;9.00;;;;;;;8.35;94.97;98727.41;5089483;28;20207;-72
2023/11/14 07:43:26;;;;;;;11.23;8.47;;;;;;;8.35;96.29;98741.09;5098436;28;20196;-72
2023/11/14 07:45:55;;;;;;;11.43;8.10;;;;;;;8.38;95.71;98728.22;5093906;28;20208;-73
2023/11/14 07:48:23;;;;;;;14.30;9.03;;;;;;;8.40;95.46;98734.19;5092714;28;20705;-73
2023/11/14 07:50:51;;;;;;;12.93;8.10;;;;;;;8.45;95.05;98734.91;5092463;28;20205;-72
2023/11/14 07:53:24;;;;;;;12.50;6.40;;;;;;;8.48;95.04;98734.00;5091295;28;20256;-73
2023/11/14 07:55:53;;;;;;;11.17;7.03;;;;;;;8.51;95.68;98723.66;5092254;28;20226;-72
2023/11/14 07:58:25;;;;;;;12.27;7.50;;;;;;;8.57;95.33;98732.91;5089335;28;20234;-73
2023/11/14 08:00:53;;;;;;;13.97;7.40;;;;;;;8.61;95.15;98731.94;5076373;28;20210;-72
2023/11/14 08:03:22;;;;;;;11.67;6.97;;;;;;;8.66;94.44;98736.09;5087780;28;20200;-72
2023/11/14 08:05:51;;;;;;;10.63;6.53;;;;;;;8.69;94.48;98743.75;5090376;28;20255;-73
2023/11/14 08:08:20;;;;;;;14.27;7.17;;;;;;;8.68;94.71;98741.19;5101903;28;20197;-73
2023/11/14 08:10:48;;;;;;;22.67;7.17;;;;;;;8.73;95.83;98739.38;5087961;28;20702;-72
2023/11/14 08:13:19;;;;;;;12.20;6.57;;;;;;;8.76;94.79;98746.13;5083476;28;20223;-72
2023/11/14 08:15:47;;;;;;;14.37;7.10;;;;;;;8.78;95.49;98755.50;5082242;28;20680;-71
2023/11/14 08:18:16;;;;;;;11.43;5.80;;;;;;;8.81;95.26;98759.72;5087934;28;20632;-73
2023/11/14 08:20:44;;;;;;;10.67;5.60;;;;;;;8.83;93.34;98755.38;5089325;28;20203;-75
2023/11/14 08:23:12;;;;;;;10.77;5.57;;;;;;;8.81;94.38;98757.16;5088749;28;20686;-74
2023/11/14 08:25:40;;;;;;;10.70;5.53;;;;;;;8.85;95.04;98754.47;5087779;28;20639;-73
2023/11/14 08:28:09;;;;;;;10.37;5.70;;;;;;;8.89;94.88;98766.34;5087130;28;20556;-72
2023/11/14 08:30:38;;;;;;;10.23;5.30;;;;;;;8.85;92.67;98753.63;5087924;28;20652;-74
2023/11/14 08:33:10;;;;;;;13.90;5.40;;;;;;;8.90;94.03;98757.75;5085703;28;20319;-73
2023/11/14 08:35:38;;;;;;;12.30;5.07;;;;;;;8.97;94.13;98770.44;5089252;28;20192;-73
2023/11/14 08:38:06;;;;;;;10.50;5.13;;;;;;;8.99;92.56;98758.41;5091184;28;20201;-73
2023/11/14 08:40:46;;;;;;;9.17;4.43;;;;;;;9.06;92.59;98773.63;5092525;28;20235;-70
2023/11/14 08:43:14;;;;;;;12.93;4.67;;;;;;;9.08;92.88;98786.41;5098350;28;20208;-71
2023/11/14 08:45:44;;;;;;;9.43;4.10;;;;;;;9.10;92.43;98770.09;5086855;28;20207;-69
2023/11/14 08:48:12;;;;;;;9.27;4.10;;;;;;;9.12;90.91;98763.16;5092924;28;20232;-66
2023/11/14 08:50:40;;;;;;;8.80;3.70;;;;;;;9.15;92.58;98773.38;5088099;28;20211;-67
2023/11/14 08:53:10;;;;;;;8.97;4.13;;;;;;;9.16;90.71;98769.91;5086242;28;20232;-69
2023/11/14 08:55:39;;;;;;;12.97;4.47;;;;;;;9.19;92.53;98769.84;5089022;28;20316;-66
2023/11/14 08:58:07;;;;;;;10.83;4.03;;;;;;;9.24;91.88;98771.44;5089527;28;20212;-68
2023/11/14 09:00:35;;;;;;;10.87;3.50;;;;;;;9.26;90.93;98770.53;5080948;28;20196;-69
2023/11/14 09:03:05;;;;;;;12.50;4.03;;;;;;;9.30;90.34;98781.56;5087751;28;20203;-68
2023/11/14 09:05:34;;;;;;;8.97;3.67;;;;;;;9.30;90.34;98771.28;5082095;28;20230;-68
2023/11/14 09:08:03;;;;;;;13.87;4.20;;;;;;;9.35;91.36;98772.00;5087289;28;20207;-68
2023/11/14 09:10:31;;;;;;;6.77;3.57;;;;;;;9.39;91.30;98777.03;5085717;28;20201;-67
2023/11/14 09:13:00;;;;;;;13.03;3.87;;;;;;;9.42;90.82;98770.94;5087494;28;20203;-68
2023/11/14 09:15:29;;;;;;;10.10;4.03;;;;;;;9.47;90.67;98774.25;5083103;28;20295;-66
2023/11/14 09:17:57;;;;;;;11.23;3.37;;;;;;;9.52;89.87;98779.25;5078602;28;20892;-69
2023/11/14 09:20:27;;;;;;;12.57;3.70;;;;;;;9.54;89.54;98773.19;5086082;28;20205;-70
2023/11/14 09:22:56;;;;;;;12.83;4.10;;;;;;;9.59;89.29;98768.75;5092471;28;20232;-67
2023/11/14 09:25:28;;;;;;;12.37;3.93;;;;;;;9.64;88.22;98769.47;5084310;28;20215;-69
2023/11/14 09:27:57;;;;;;;10.00;3.67;;;;;;;9.70;88.35;98763.31;5088275;28;20670;-67
2023/11/14 09:30:24;;;;;;;9.13;3.03;;;;;;;9.79;87.41;98754.47;5081511;28;20197;-66
2023/11/14 09:32:52;;;;;;;8.87;3.17;;;;;;;9.84;86.76;98762.91;5085920;28;20228;-70
2023/11/14 09:35:20;;;;;;;9.60;2.47;;;;;;;9.92;85.87;98766.09;5088964;28;20640;-69
2023/11/14 09:37:50;;;;;;;7.53;3.07;;;;;;;9.96;84.27;98767.69;5090305;28;20205;-68
2023/11/14 09:40:22;;;;;;;9.20;3.03;;;;;;;9.98;85.68;98759.91;5084831;28;20291;-70
2023/11/14 09:42:50;;;;;;;7.07;2.33;;;;;;;9.99;84.69;98762.47;5089059;28;20664;-71
2023/11/14 09:45:20;;;;;;;9.23;3.33;;;;;;;10.04;84.33;98759.75;5084441;28;20209;-69
2023/11/14 09:47:49;;;;;;;8.47;2.37;;;;;;;10.11;83.90;98762.09;5079876;28;20208;-71
2023/11/14 09:50:19;;;;;;;10.93;2.70;;;;;;;10.11;83.42;98762.09;5079865;28;20212;-69
2023/11/14 09:52:48;;;;;;;9.70;2.60;;;;;;;10.16;83.06;98765.38;5089654;28;21638;-69
2023/11/14 09:55:18;;;;;;;8.80;2.50;;;;;;;10.13;83.40;98756.91;5086521;28;20628;-69
2023/11/14 09:57:46;;;;;;;10.20;2.57;;;;;;;10.14;82.32;98762.00;5079866;28;20203;-70
2023/11/14 10:00:18;;;;;;;6.60;2.87;;;;;;;10.13;82.84;98756.91;5085549;28;20236;-71
2023/11/14 10:02:46;;;;;;;11.80;2.90;;;;;;;10.13;82.41;98754.34;5091102;28;20244;-66
2023/11/14 10:05:16;;;;;;;7.57;2.50;;;;;;;10.16;81.78;98759.38;5076674;28;20196;-70
2023/11/14 10:07:47;;;;;;;9.27;2.27;;;;;;;10.20;81.78;98760.13;5081133;28;20296;-70
2023/11/14 10:10:15;;;;;;;10.60;2.90;;;;;;;10.26;81.13;98754.81;5081906;28;20284;-70
2023/11/14 10:12:44;;;;;;;7.73;2.33;;;;;;;10.26;80.25;98759.97;5080747;28;20215;-73
2023/11/14 10:15:14;;;;;;;6.50;2.53;;;;;;;10.25;81.20;98747.97;5084961;28;20208;-72
2023/11/14 10:17:43;;;;;;;10.77;2.10;;;;;;;10.22;81.50;98755.78;5086526;28;20250;-71
2023/11/14 10:20:13;;;;;;;5.73;2.07;;;;;;;10.15;82.80;98763.69;5086826;28;20207;-70
2023/11/14 10:22:49;;;;;;;8.13;2.60;;;;;;;10.14;82.21;98750.88;5083971;28;20395;-70
2023/11/14 10:25:24;;;;;;;6.97;2.60;;;;;;;10.23;83.14;98745.41;5083450;28;20196;-68
2023/11/14 10:27:59;;;;;;;8.23;2.30;;;;;;;10.25;82.64;98738.53;5084112;28;20204;-66
2023/11/14 10:30:45;;;;;;;10.23;2.47;;;;;;;10.31;81.77;98750.34;5083565;28;20204;-68
2023/11/14 10:33:14;;;;;;;10.63;2.40;;;;;;;10.32;82.93;98739.19;5077598;28;20758;-69
2023/11/14 10:35:45;;;;;;;8.73;2.60;;;;;;;10.37;82.39;98745.03;5085627;28;20717;-68
2023/11/14 10:38:16;;;;;;;8.10;2.30;;;;;;;10.40;81.84;98748.34;5086298;28;20659;-68
2023/11/14 10:40:45;;;;;;;10.70;2.33;;;;;;;10.35;81.62;98747.66;5084074;28;20193;-67
2023/11/14 10:43:14;;;;;;;11.40;2.60;;;;;;;10.32;82.13;98746.91;5085645;28;20193;-68
2023/11/14 10:45:45;;;;;;;7.10;2.87;;;;;;;10.33;82.47;98740.88;5083686;28;20799;-71
2023/11/14 10:48:21;;;;;;;9.73;2.60;;;;;;;10.36;80.96;98748.50;5078393;28;20200;-68
2023/11/14 10:50:50;;;;;;;13.00;2.60;;;;;;;10.42;81.92;98745.75;5081366;28;20200;-67
2023/11/14 10:53:18;;;;;;;7.20;2.70;;;;;;;10.48;81.13;98745.53;5081613;28;20659;-69
2023/11/14 10:55:48;;;;;;;13.07;3.00;;;;;;;10.49;81.13;98742.06;5080884;28;20208;-71
2023/11/14 10:58:21;;;;;;;9.17;2.77;;;;;;;10.53;81.17;98735.94;5082961;28;20576;-70
2023/11/14 11:00:52;;;;;;;6.93;2.90;;;;;;;10.54;80.77;98742.75;5096188;28;20211;-67
2023/11/14 11:03:21;;;;;;;7.83;2.20;;;;;;;10.58;80.01;98741.78;5081854;28;20204;-65
2023/11/14 11:05:49;;;;;;;11.53;2.87;;;;;;;10.62;78.74;98752.81;5080113;28;20254;-71
2023/11/14 11:08:17;;;;;;;10.60;2.23;;;;;;;10.64;78.28;98741.59;5081290;28;20230;-70
2023/11/14 11:10:46;;;;;;;10.07;2.73;;;;;;;10.74;77.30;98749.00;5084299;28;20214;-71
2023/11/14 11:13:16;;;;;;;5.23;1.80;;;;;;;10.83;77.97;98725.50;5081268;28;21745;-67
2023/11/14 11:15:47;;;;;;;5.53;1.93;;;;;;;10.93;77.06;98737.16;5076652;28;20217;-75
2023/11/14 11:18:17;;;;;;;8.03;2.10;;;;;;;10.95;76.75;98727.66;5080661;28;20675;-73
2023/11/14 11:20:45;;;;;;;8.83;2.80;;;;;;;11.07;76.36;98747.84;5081930;28;20200;-70
2023/11/14 11:23:13;;;;;;;8.77;2.20;;;;;;;11.12;75.53;98737.41;5081054;28;20213;-73
2023/11/14 11:25:43;;;;;;;9.20;1.83;;;;;;;11.17;74.64;98742.41;5079060;28;20220;-71
2023/11/14 11:28:32;;;;;;;6.43;2.33;;;;;;;11.19;73.51;98743.16;5082045;28;20209;-72
2023/11/14 11:31:15;;;;;;;9.40;2.10;;;;;;;11.23;73.83;98740.44;5081531;28;20640;-71
2023/11/14 11:33:45;;;;;;;7.90;2.30;;;;;;;11.26;73.52;98737.72;5077254;28;20643;-71
2023/11/14 11:36:29;;;;;;;7.53;1.93;;;;;;;11.35;73.57;98745.16;5080856;28;20778;-64
2023/11/14 11:38:59;;;;;;;9.70;2.33;;;;;;;11.46;73.26;98742.19;5075572;28;20868;-71